Flight Track Log - Related Links

Times and Time Zones

All times are in EDT time to prevent confusion due to time zone crossing. See the N24SA flight status page for this flight to view local times or setup timezone preferences in your user account.

Time Position Orientation Groundspeed Altitude Reporting Facility
EDT Latitude Longitude Course Direction KTS MPH feet Rate Location/Type
Mon 11:54:39 AM 43.5667 -71.4667 166° South 181 208 3,000  Level KA90
Mon 11:55:20 AM 43.5333 -71.4833 200° South 218 251 4,900 1,451 Climbing KA90
Mon 11:56:10 AM 43.4672 -71.4469 158° South 269 310 5,200 1,189 Climbing Boston Center
Mon 11:57:11 AM 43.4078 -71.3925 146° Southeast 254 292 7,100 1,872 Climbing Boston Center
Mon 11:58:15 AM 43.3367 -71.3583 161° South 250 288 9,100 1,790 Climbing Boston Center
Mon 11:59:15 AM 43.2714 -71.3236 159° South 251 289 10,800 2,529 Climbing Boston Center
Mon 12:00:00 PM 42.9284 -71.1817 166° South  Level FlightAware Approximate
Mon 12:00:16 PM 43.2114 -71.2433 136° Southeast 299 344 14,200  Level Boston Center
Mon 12:01:19 PM 43.1586 -71.1456 126° Southeast 323 372 16,400 2,634 Climbing Boston Center
Mon 12:02:19 PM 43.1075 -71.0375 123° Southeast 353 406 19,600 2,557 Climbing Boston Center
Mon 12:03:21 PM 43.0539 -70.9172 121° Southeast 369 425 21,600 2,244 Climbing Boston Center
Mon 12:04:22 PM 42.9928 -70.7964 125° Southeast 386 444 24,200 2,274 Climbing Boston Center
Mon 12:05:25 PM 42.8903 -70.7153 150° Southeast 392 451 26,300 1,887 Climbing Boston Center
Mon 12:06:26 PM 42.7967 -70.7942 212° Southwest 396 456 28,100 836 Climbing Boston Center
Mon 12:07:27 PM 42.7097 -70.8858 218° Southwest 399 459 28,000 48 Descending Boston Center
Mon 12:08:30 PM 42.6164 -70.9767 216° Southwest 411 473 28,200 48 Climbing Boston Center
Mon 12:09:31 PM 42.5236 -71.0625 214° Southwest 408 470 28,100 613 Descending Boston Center
Mon 12:11:36 PM 42.3444 -71.2389 212° Southwest 398 458 30,100 1,427 Climbing Boston Center
Mon 12:12:36 PM 42.2408 -71.3483 218° Southwest 410 472 32,500 1,884 Climbing Boston Center
Mon 12:13:37 PM 42.1542 -71.4481 220° Southwest 410 472 33,900 1,377 Climbing Boston Center
Mon 12:14:38 PM 42.0606 -71.5503 219° Southwest 422 486 35,300 1,104 Climbing Boston Center
Mon 12:15:42 PM 41.9639 -71.6461 216° Southwest 426 490 36,200 871 Climbing Boston Center
Mon 12:16:42 PM 41.8647 -71.7453 217° Southwest 436 502 37,100 973 Climbing Boston Center
Mon 12:18:47 PM 41.6742 -71.9528 215° Southwest 438 504 39,200 876 Climbing Boston Center
Mon 12:19:47 PM 41.5786 -72.0581 220° Southwest 438 504 39,800 843 Climbing Boston Center
Mon 12:20:48 PM 41.4808 -72.1692 220° Southwest 436 502 40,900 823 Climbing Boston Center
Mon 12:21:51 PM 41.3867 -72.2675 218° Southwest 433 498 41,500 774 Climbing Boston Center
Mon 12:22:52 PM 41.2767 -72.3825 218° Southwest 420 483 42,500 486 Climbing Boston Center
Mon 12:24:56 PM 41.0878 -72.5633 216° Southwest 421 484 43,000 163 Climbing Boston Center
Mon 12:25:56 PM 40.9917 -72.6578 217° Southwest 425 489 43,000 50 Level Boston Center
Mon 12:26:57 PM 40.8947 -72.7597 218° Southwest 437 503 43,100 48 Climbing Boston Center
Mon 12:28:00 PM 40.7944 -72.8558 216° Southwest 441 507 43,100  Level Boston Center
Mon 12:29:01 PM 40.6919 -72.9533 216° Southwest 448 516 43,100 -49 Level Boston Center
Mon 12:30:03 PM 40.5903 -73.0519 216° Southwest 452 520 43,000 -49 Descending Boston Center
Mon 12:31:04 PM 40.4922 -73.1467 216° Southwest 445 512 43,000  Level Boston Center
Mon 12:32:05 PM 40.3786 -73.2583 217° Southwest 429 494 43,000 97 Level Boston Center
Mon 12:33:08 PM 40.2853 -73.3483 216° Southwest 423 487 43,200  Climbing Boston Center
Mon 12:34:09 PM 40.1964 -73.4375 217° Southwest 409 471 43,000 -149 Descending Boston Center
Mon 12:35:09 PM 40.1003 -73.5311 217° Southwest 404 465 42,900 -97 Descending Boston Center
Mon 12:36:13 PM 40.0122 -73.6144 216° Southwest 394 453 42,800  Descending Boston Center
Mon 12:37:14 PM 39.9317 -73.6944 217° Southwest 393 452 42,900 41 Climbing Boston Center
Mon 12:38:41 PM 39.7833 -73.8264 214° Southwest 409 471 42,900 40 Level Washington Center
Mon 12:39:44 PM 39.6906 -73.9200 218° Southwest 419 482 43,000 184 Climbing Washington Center
Mon 12:40:19 PM 39.6317 -73.9775 217° Southwest 425 489 43,200  Climbing Boston Center
Mon 12:41:48 PM 39.4958 -74.1097 217° Southwest 437 503 43,000 -39 Descending Washington Center
Mon 12:42:52 PM 39.3981 -74.2125 219° Southwest 445 512 43,100 -97 Climbing Washington Center
Mon 12:43:52 PM 39.2928 -74.3036 214° Southwest 451 519 42,800 -49 Descending Washington Center
Mon 12:44:54 PM 39.1867 -74.3919 213° Southwest 453 521 43,000 72 Climbing Washington Center
Mon 12:48:02 PM 38.8522 -74.6914 215° Southwest 454 522 43,100  Climbing Washington Center
Mon 12:49:03 PM 38.7517 -74.7864 216° Southwest 450 518 43,000  Descending Washington Center
Mon 12:50:06 PM 38.6483 -74.8778 215° Southwest 450 518 43,100  Climbing Washington Center
Mon 12:54:14 PM 38.2200 -75.2575 214° Southwest 446 513 43,000  Descending Washington Center
Mon 12:55:15 PM 38.1206 -75.3450 215° Southwest 440 506 43,100  Climbing Washington Center
Mon 12:56:18 PM 38.0000 -75.4444 213° Southwest 435 501 43,000 -128 Descending Washington Center
Mon 12:58:23 PM 37.8022 -75.6075 213° Southwest 425 489 42,700 -128 Descending Washington Center
Mon 12:59:00 PM 37.8191 -75.5627 214° Southwest  Level FlightAware Approximate
Mon 12:59:26 PM 37.6972 -75.6969 214° Southwest 423 487 42,600  Level Washington Center
Mon 01:00:27 PM 37.6122 -75.7692 214° Southwest 423 487 43,000 197 Climbing Washington Center
Mon 01:01:28 PM 37.5403 -75.9528 244° Southwest 584 672 43,000  Level Washington Center
Mon 01:08:33 PM 36.8894 -76.3361 213° Southwest 188 216 43,000  Level Washington Center
Mon 01:09:34 PM 36.6294 -76.3814 188° South 429 494 43,000  Level Washington Center
Mon 01:10:35 PM 36.5042 -76.4678 209° Southwest 383 441 43,000  Level Washington Center
Mon 01:11:00 PM 36.6906 -76.4956 213° Southwest  Level FlightAware Approximate
Mon 01:11:38 PM 36.3781 -76.5739 214° Southwest 477 549 43,000  Level Washington Center
Mon 01:12:00 PM 36.5968 -76.5716 213° Southwest  Level FlightAware Approximate
Mon 01:12:39 PM 36.2736 -76.6678 216° Southwest 465 535 43,000  Level Washington Center
Mon 01:13:00 PM 36.5031 -76.6474 213° Southwest  Level FlightAware Approximate
Mon 01:13:43 PM 36.1731 -76.7533 214° Southwest 454 522 43,000  Level Washington Center
Mon 01:14:44 PM 36.0736 -76.8444 217° Southwest 449 517 43,000  Level Washington Center
Mon 01:15:47 PM 35.9758 -76.9247 214° Southwest 445 512 43,000  Level Washington Center
Mon 01:16:48 PM 35.8731 -77.0058 213° Southwest 442 509 43,000  Level Washington Center
Mon 01:17:52 PM 35.7539 -77.1164 217° Southwest 436 502 43,000  Level Washington Center
Mon 01:18:53 PM 35.6619 -77.2028 217° Southwest 434 499 43,000  Level Washington Center
Mon 01:19:53 PM 35.5633 -77.2964 218° Southwest 434 499 43,000  Level Washington Center
Mon 01:20:58 PM 35.4694 -77.3861 218° Southwest 433 498 43,000  Level Washington Center
Mon 01:21:58 PM 35.3733 -77.4772 218° Southwest 432 497 43,000  Level Washington Center
Mon 01:23:01 PM 35.2811 -77.5694 219° Southwest 432 497 43,000  Level Washington Center
Mon 01:24:03 PM 35.1806 -77.6806 222° Southwest 432 497 43,000  Level Washington Center
Mon 01:25:06 PM 35.0903 -77.7878 224° Southwest 427 491 43,000  Level Washington Center
Mon 01:28:12 PM 34.8444 -78.0783 224° Southwest 428 493 43,000  Level Washington Center
Mon 01:29:13 PM 34.7506 -78.1908 225° Southwest 422 486 43,000  Level Washington Center
Mon 01:31:21 PM 34.5433 -78.4111 221° Southwest 440 506 43,000  Level Jacksonville Center
Mon 01:33:21 PM 34.3592 -78.5686 215° Southwest 427 491 43,000  Level Washington Center
Mon 01:34:21 PM 34.2644 -78.6742 223° Southwest 435 501 43,000  Level Jacksonville Center
Mon 01:35:21 PM 34.1694 -78.7667 219° Southwest 450 518 43,000  Level Jacksonville Center
Mon 01:36:21 PM 34.0808 -78.8611 221° Southwest 433 498 43,000  Level Jacksonville Center
Mon 01:37:21 PM 33.9900 -78.9553 221° Southwest 445 512 43,000  Level Jacksonville Center
Mon 01:38:21 PM 33.9031 -79.0494 222° Southwest 444 511 43,000  Level Jacksonville Center
Mon 01:39:21 PM 33.8203 -79.1431 223° Southwest 438 504 43,000  Level Jacksonville Center
Mon 01:40:21 PM 33.7231 -79.2369 219° Southwest 438 504 43,000  Level Jacksonville Center
Mon 01:42:21 PM 33.5467 -79.4186 221° Southwest 438 504 43,000  Level Jacksonville Center
Mon 01:43:21 PM 33.4592 -79.5067 220° Southwest 432 497 43,000  Level Jacksonville Center
Mon 01:44:21 PM 33.3656 -79.5972 219° Southwest 432 497 43,000  Level Jacksonville Center
Mon 01:45:21 PM 33.2700 -79.6903 219° Southwest 432 497 43,000  Level Jacksonville Center
Mon 01:46:21 PM 33.1803 -79.7781 219° Southwest 431 496 43,000  Level Jacksonville Center
Mon 01:47:21 PM 33.1011 -79.8650 223° Southwest 423 487 43,000  Level Jacksonville Center
Mon 01:48:21 PM 32.9944 -79.9528 215° Southwest 437 503 43,000  Level Jacksonville Center
Mon 01:49:21 PM 32.9067 -80.0372 219° Southwest 436 502 43,000  Level Jacksonville Center
Mon 01:50:21 PM 32.8083 -80.1144 213° Southwest 442 509 43,000  Level Jacksonville Center
Mon 01:52:21 PM 32.6047 -80.2639 208° Southwest 428 493 43,000  Level Jacksonville Center
Mon 01:53:21 PM 32.5144 -80.3378 215° Southwest 421 484 43,000  Level Jacksonville Center
Mon 01:55:21 PM 32.3086 -80.4861 211° Southwest 421 484 43,000  Level Jacksonville Center
Mon 01:57:21 PM 32.1111 -80.6433 214° Southwest 421 484 43,000  Level Jacksonville Center
Mon 01:58:22 PM 31.9953 -80.7075 205° Southwest 425 489 43,000  Level Jacksonville Center
Mon 01:59:21 PM 31.9003 -80.7661 208° Southwest 425 489 43,000  Level Jacksonville Center
Mon 02:01:00 PM 31.7139 -80.7487 175° South  Level Estimated
Mon 02:01:21 PM 31.6750 -80.9103 175° South 427 491 43,000  Level Jacksonville Center
Mon 02:02:21 PM 31.5694 -80.9761 208° Southwest 426 490 43,000  Level Jacksonville Center
Mon 02:03:21 PM 31.4642 -81.0414 208° Southwest 431 496 43,000  Level Jacksonville Center
Mon 02:04:21 PM 31.3753 -81.1067 212° Southwest 418 481 43,000  Level Jacksonville Center
Mon 02:09:21 PM 30.7242 -81.1308 177° South 452 520 43,000 -333 Level Jacksonville Center
Mon 02:10:21 PM 30.5986 -81.1236 177° South 459 528 41,000 -1,000 Descending Jacksonville Center
Mon 02:11:21 PM 30.4714 -81.1211 179° South 450 518 41,000  Level Jacksonville Center
Mon 02:12:22 PM 30.3378 -81.1189 179° South 466 536 41,000 -3,000 Level Jacksonville Center
Mon 02:13:00 PM 30.4119 -81.1421 177° South  Level FlightAware Approximate
Mon 02:13:21 PM 30.2292 -81.1136 178° South 458 527 35,000  Level Jacksonville Center
Mon 02:14:00 PM 30.2987 -81.1356 177° South  Level FlightAware Approximate
Mon 02:14:21 PM 30.0997 -81.1136 180° South 445 512 35,000  Level Jacksonville Center
Mon 02:15:21 PM 29.9931 -81.1036 175° South 418 481 34,000 -250 Descending Jacksonville Center
Mon 02:18:21 PM 29.5942 -81.0917 180° South 476 548 34,000  Level Jacksonville Center
Mon 02:19:21 PM 29.4500 -81.0897 179° South 482 555 34,000  Level Jacksonville Center
Mon 02:20:21 PM 29.3183 -81.0850 178° South 470 541 34,000  Level Jacksonville Center
Mon 02:21:21 PM 29.1969 -81.0492 166° South 463 533 34,000  Level Jacksonville Center
Mon 02:22:21 PM 29.0792 -80.9989 160° South 438 504 34,000 -3,550 Level Jacksonville Center
Mon 02:24:10 PM 28.8789 -80.9036 157° South 432 497 24,000 -4,211 Descending Miami Center
Mon 02:25:12 PM 28.7728 -80.8667 163° South 413 475 22,000 -960 Descending Miami Center
Mon 02:26:15 PM 28.6600 -80.8314 165° South 415 478 22,000 -963 Level Miami Center
Mon 02:28:19 PM 28.4414 -80.7447 161° South 378 435 19,000 -1,613 Descending Miami Center
Mon 02:29:21 PM 28.3583 -80.7094 160° South 372 428 17,000 -1,935 Descending Miami Center
Mon 02:30:23 PM 28.2308 -80.6919 173° South 602 693 15,000 -1,065 Descending Miami Center
Mon 02:33:29 PM 27.9614 -80.6583 164° South 346 398 12,600 -581 Descending Miami Center
Mon 02:34:31 PM 27.8714 -80.6617 182° South 309 356 12,600 -1,016 Level Miami Center
Mon 02:35:33 PM 27.7883 -80.6642 182° South 286 329 10,500 -1,742 Descending Miami Center
Mon 02:36:35 PM 27.7106 -80.6672 182° South 287 330 9,000 -1,290 Descending Miami Center
Mon 02:38:39 PM 27.5461 -80.6775 149° Southeast 274 315 6,500 -806 Descending Miami Center
Mon 02:39:41 PM 27.4994 -80.6378 143° Southeast 230 265 6,500  Level Miami Center

Login

Don't have an account? Register now (free) for customized features, flight alerts, and more!